Station Historical Data
Daily Summary for November 8, 2017 Units:  English    Metric   Both
« Previous Day
Next Day »
Daily Weekly Monthly Yearly Custom
  High: Low: Average:
Temperature: 63.3 °F 50.2 °F 56.7 °F
Dew Point: 60.6 °F 48.3 °F 53.7 °F
Humidity: 93% 81% 90%
Wind Speed: 5.1mph 0.0mph 0.5mph
Wind Gust: 5.1mph - -
Wind- - WSW
Pressure: 30.13 in 29.98 in -
Precipitation: 0.04 in    
Historical Graphs
 
 
Tabular Data for November 8, 2017
Time Temperature Dew Point Pressure Wind Wind Speed Wind Gust Humidity Rainfall Rate (Hourly) solar Conditions
00:04 63.3 °F 60.6 °F 30.00 in Calm     91% 0.00 in WeatherDisplay:10.37 W/m2 CLR
00:09 63.1 °F 60.4 °F 30.00 in Calm     91% 0.00 in WeatherDisplay:10.37 W/m2 CLR
00:14 63.0 °F 60.3 °F 30.00 in Calm     91% 0.00 in WeatherDisplay:10.37 W/m2 CLR
00:19 62.8 °F 60.1 °F 30.00 in Calm     91% 0.00 in WeatherDisplay:10.37 W/m2 CLR
00:24 62.6 °F 59.9 °F 30.00 in Calm     91% 0.00 in WeatherDisplay:10.37 W/m2 CLR
00:27 62.6 °F 60.2 °F 30.01 in Calm     92% 0.00 in WeatherDisplay:10.37 W/m2 CLR
00:32 62.6 °F 60.2 °F 30.01 in Calm     92% 0.00 in WeatherDisplay:10.37 W/m2 CLR
00:37 62.5 °F 60.1 °F 30.01 in WNW 1.0 mph   92% 0.00 in WeatherDisplay:10.37 W/m2 CLR
00:42 62.6 °F 60.2 °F 30.01 in Calm     92% 0.00 in WeatherDisplay:10.37 W/m2 CLR
00:47 62.7 °F 60.0 °F 30.01 in Calm     91% 0.00 in WeatherDisplay:10.37 W/m2 CLR
00:52 62.8 °F 60.1 °F 30.01 in Calm     91% 0.00 in WeatherDisplay:10.37 W/m2 CLR
00:57 62.8 °F 59.8 °F 30.01 in WNW 1.2 mph 1.2 mph 90% 0.00 in WeatherDisplay:10.37 W/m2 CLR
01:02 63.0 °F 60.0 °F 30.02 in West 1.2 mph 1.2 mph 90% 0.00 in WeatherDisplay:10.37 W/m2 BKN
01:07 63.1 °F 59.8 °F 30.02 in WNW 1.2 mph 1.2 mph 89% 0.00 in WeatherDisplay:10.37 W/m2 BKN
01:13 63.1 °F 59.8 °F 30.03 in West 2.3 mph 2.3 mph 89% 0.00 in WeatherDisplay:10.37 W/m2 BKN
01:18 63.1 °F 59.5 °F 30.03 in WSW 2.3 mph 2.3 mph 88% 0.00 in WeatherDisplay:10.37 W/m2 BKN
01:23 63.1 °F 59.5 °F 30.03 in SW 1.2 mph 1.2 mph 88% 0.00 in WeatherDisplay:10.37 W/m2 BKN
01:28 62.9 °F 59.3 °F 30.03 in West 4.6 mph 4.6 mph 88% 0.00 in WeatherDisplay:10.37 W/m2 BKN
01:33 62.4 °F 58.8 °F 30.04 in West 1.2 mph 1.2 mph 88% 0.00 in WeatherDisplay:10.37 W/m2 OVC
01:38 62.0 °F 58.7 °F 30.03 in Calm     89% 0.00 in WeatherDisplay:10.37 W/m2 OVC
01:43 61.6 °F 58.3 °F 30.03 in Calm     89% 0.00 in WeatherDisplay:10.37 W/m2 -DZ
01:48 61.3 °F 58.3 °F 30.02 in Calm     90% 0.00 in WeatherDisplay:10.37 W/m2 -DZ
01:53 61.0 °F 58.0 °F 30.03 in Calm     90% 0.00 in WeatherDisplay:10.37 W/m2 -DZ
01:58 60.8 °F 57.8 °F 30.03 in Calm     90% 0.00 in WeatherDisplay:10.37 W/m2 -DZ
02:03 60.6 °F 58.0 °F 30.02 in WNW 1.2 mph   91% 0.00 in WeatherDisplay:10.37 W/m2 OVC
02:08 60.5 °F 57.9 °F 30.02 in Calm     91% 0.00 in WeatherDisplay:10.37 W/m2 OVC
02:13 60.3 °F 57.7 °F 30.02 in Calm     91% 0.00 in WeatherDisplay:10.37 W/m2 OVC
02:18 60.3 °F 57.7 °F 30.02 in Calm     91% 0.00 in WeatherDisplay:10.37 W/m2 OVC
02:23 60.3 °F 57.7 °F 30.03 in Calm   0.1 mph 91% 0.00 in WeatherDisplay:10.37 W/m2 -DZ
02:28 60.2 °F 57.6 °F 30.02 in Calm     91% 0.00 in WeatherDisplay:10.37 W/m2 -DZ
02:34 60.1 °F 57.8 °F 30.00 in Calm     92% 0.00 in WeatherDisplay:10.37 W/m2 -DZ
02:39 60.1 °F 57.8 °F 29.99 in Calm     92% 0.00 in WeatherDisplay:10.37 W/m2 -DZ
02:44 60.0 °F 57.7 °F 29.98 in Calm     92% 0.00 in WeatherDisplay:10.37 W/m2 -DZ
02:49 60.0 °F 57.7 °F 29.99 in Calm     92% 0.00 in WeatherDisplay:10.37 W/m2 -DZ
02:54 59.9 °F 57.6 °F 29.98 in Calm     92% 0.00 in WeatherDisplay:10.37 W/m2 -DZ
02:59 59.8 °F 57.5 °F 29.99 in Calm     92% 0.00 in WeatherDisplay:10.37 W/m2 -DZ
03:04 59.8 °F 57.5 °F 30.00 in Calm     92% 0.00 in WeatherDisplay:10.37 W/m2 SCT
03:09 59.7 °F 57.4 °F 30.00 in Calm     92% 0.00 in WeatherDisplay:10.37 W/m2 SCT
03:14 59.7 °F 57.4 °F 30.00 in Calm     92% 0.00 in WeatherDisplay:10.37 W/m2 SCT
03:19 59.7 °F 57.4 °F 30.00 in Calm     92% 0.00 in WeatherDisplay:10.37 W/m2 SCT
03:24 59.6 °F 57.3 °F 30.01 in Calm     92% 0.00 in WeatherDisplay:10.37 W/m2 SCT
03:29 59.5 °F 57.2 °F 30.01 in Calm     92% 0.00 in WeatherDisplay:10.37 W/m2 SCT
03:34 59.5 °F 57.2 °F 30.00 in Calm     92% 0.00 in WeatherDisplay:10.37 W/m2 SCT
03:39 59.5 °F 57.2 °F 30.01 in Calm     92% 0.00 in WeatherDisplay:10.37 W/m2 SCT
03:44 59.4 °F 57.1 °F 30.01 in Calm     92% 0.00 in WeatherDisplay:10.37 W/m2 SCT
03:49 59.4 °F 57.1 °F 30.01 in Calm     92% 0.00 in WeatherDisplay:10.37 W/m2 SCT
03:51 59.4 °F 57.1 °F 30.01 in Calm     92% 0.00 in WeatherDisplay:10.37 W/m2 SCT
03:56 59.4 °F 57.4 °F 30.01 in West 1.2 mph   93% 0.00 in WeatherDisplay:10.37 W/m2 SCT
04:06 59.3 °F 57.0 °F 30.02 in Calm     92% 0.00 in WeatherDisplay:10.37 W/m2 BKN
04:11 59.3 °F 57.0 °F 30.02 in WNW 1.0 mph   92% 0.00 in WeatherDisplay:10.37 W/m2 BKN
04:16 59.3 °F 57.0 °F 30.02 in Calm     92% 0.00 in WeatherDisplay:10.37 W/m2 BKN
04:21 59.3 °F 57.0 °F 30.03 in WNW 1.2 mph   92% 0.00 in WeatherDisplay:10.37 W/m2 BKN
04:27 59.1 °F 56.8 °F 30.03 in Calm     92% 0.00 in WeatherDisplay:10.37 W/m2 BKN
04:32 59.0 °F 56.7 °F 30.03 in WSW 1.2 mph   92% 0.00 in WeatherDisplay:10.37 W/m2 BKN
04:37 59.0 °F 56.7 °F 30.03 in WNW 1.2 mph   92% 0.00 in WeatherDisplay:10.37 W/m2 BKN
04:42 58.9 °F 56.3 °F 30.03 in SW 5.1 mph 5.1 mph 91% 0.00 in WeatherDisplay:10.37 W/m2 BKN
04:47 58.7 °F 56.1 °F 30.03 in West 2.3 mph 2.3 mph 91% 0.00 in WeatherDisplay:10.37 W/m2 BKN
04:52 58.6 °F 56.0 °F 30.04 in Calm     91% 0.00 in WeatherDisplay:10.37 W/m2 BKN
04:57 58.5 °F 55.9 °F 30.03 in West 1.2 mph   91% 0.00 in WeatherDisplay:10.37 W/m2 BKN
05:02 58.4 °F 55.8 °F 30.03 in Calm     91% 0.00 in WeatherDisplay:10.37 W/m2 OVC
05:07 58.3 °F 55.7 °F 30.03 in SW 1.2 mph   91% 0.00 in WeatherDisplay:10.37 W/m2 OVC
05:12 58.2 °F 55.6 °F 30.03 in Calm     91% 0.00 in WeatherDisplay:10.37 W/m2 OVC
05:17 58.2 °F 55.6 °F 30.03 in SW 1.2 mph   91% 0.00 in WeatherDisplay:10.37 W/m2 OVC
05:22 58.0 °F 55.4 °F 30.03 in Calm     91% 0.00 in WeatherDisplay:10.37 W/m2 -RA
05:27 58.0 °F 55.4 °F 30.03 in West 1.2 mph   91% 0.00 in WeatherDisplay:10.37 W/m2 -RA
05:32 57.9 °F 55.3 °F 30.03 in West 1.2 mph 1.2 mph 91% 0.00 in WeatherDisplay:10.37 W/m2 -RA
05:37 57.8 °F 55.5 °F 30.03 in Calm     92% 0.01 in WeatherDisplay:10.37 W/m2 -RA
05:42 57.7 °F 55.4 °F 30.03 in Calm     92% 0.01 in WeatherDisplay:10.37 W/m2 -RA
05:47 57.6 °F 55.3 °F 30.03 in Calm   0.1 mph 92% 0.02 in WeatherDisplay:10.37 W/m2 -RA
05:52 57.6 °F 55.3 °F 30.03 in Calm     92% 0.02 in WeatherDisplay:10.37 W/m2 -RA
05:58 57.4 °F 55.1 °F 30.03 in Calm     92% 0.02 in WeatherDisplay:10.37 W/m2 -RA
06:03 57.4 °F 55.1 °F 30.04 in Calm     92% 0.03 in WeatherDisplay:10.37 W/m2 -RA
06:08 57.4 °F 55.4 °F 30.04 in Calm     93% 0.03 in WeatherDisplay:10.37 W/m2 -RA
06:13 57.4 °F 55.4 °F 30.04 in Calm     93% 0.03 in WeatherDisplay:10.37 W/m2 -RA
06:18 57.4 °F 55.4 °F 30.05 in Calm     93% 0.03 in WeatherDisplay:10.37 W/m2 -RA
06:23 57.5 °F 55.5 °F 30.05 in Calm     93% 0.03 in WeatherDisplay:10.37 W/m2 -RA
06:28 57.5 °F 55.5 °F 30.05 in Calm     93% 0.03 in WeatherDisplay:10.37 W/m2 -RA
06:33 57.4 °F 55.4 °F 30.04 in Calm     93% 0.03 in WeatherDisplay:10.37 W/m2 OVC
06:38 57.4 °F 55.4 °F 30.05 in Calm     93% 0.02 in WeatherDisplay:10.37 W/m2 OVC
06:43 57.3 °F 55.3 °F 30.04 in Calm     93% 0.02 in WeatherDisplay:10.37 W/m2 OVC
06:45 57.3 °F 55.3 °F 30.04 in Calm     93% 0.00 in WeatherDisplay:10.37 W/m2 OVC
06:50 57.3 °F 55.3 °F 30.04 in Calm     93% 0.00 in WeatherDisplay:10.37 W/m2 OVC
06:55 57.3 °F 55.3 °F 30.04 in Calm     93% 0.00 in WeatherDisplay:10.37 W/m2 OVC
07:00 57.2 °F 55.2 °F 30.04 in Calm     93% 0.00 in WeatherDisplay:10.37 W/m2 OVC
07:05 57.2 °F 55.2 °F 30.04 in Calm     93% 0.00 in WeatherDisplay:10.37 W/m2 OVC
07:10 57.2 °F 55.2 °F 30.04 in Calm     93% 0.00 in WeatherDisplay:10.37 W/m2 OVC
07:15 57.2 °F 55.2 °F 30.04 in Calm     93% 0.00 in WeatherDisplay:10.37 W/m2 OVC
07:20 57.2 °F 55.2 °F 30.04 in Calm   1.0 mph 93% 0.00 in WeatherDisplay:10.37 W/m2 OVC
07:25 57.1 °F 55.1 °F 30.05 in Calm   1.0 mph 93% 0.00 in WeatherDisplay:10.37 W/m2 OVC
07:30 57.0 °F 55.0 °F 30.05 in WNW 1.2 mph   93% 0.00 in WeatherDisplay:10.37 W/m2 OVC
07:35 57.0 °F 55.0 °F 30.06 in Calm     93% 0.00 in WeatherDisplay:10.37 W/m2 OVC
07:40 57.0 °F 55.0 °F 30.06 in Calm     93% 0.00 in WeatherDisplay:10.37 W/m2 OVC
07:45 57.0 °F 55.0 °F 30.06 in Calm     93% 0.00 in WeatherDisplay:10.37 W/m2 OVC
07:50 57.0 °F 55.0 °F 30.07 in West 1.0 mph 1.0 mph 93% 0.00 in WeatherDisplay:10.37 W/m2 OVC
07:55 56.9 °F 54.9 °F 30.08 in SW 4.6 mph 4.6 mph 93% 0.00 in WeatherDisplay:10.37 W/m2 OVC
08:00 56.9 °F 54.9 °F 30.08 in West 2.3 mph 2.3 mph 93% 0.00 in WeatherDisplay:10.37 W/m2 OVC
08:05 56.8 °F 54.8 °F 30.07 in Calm     93% 0.00 in WeatherDisplay:10.37 W/m2 OVC
08:10 56.7 °F 54.7 °F 30.06 in West 1.2 mph 1.2 mph 93% 0.00 in WeatherDisplay:10.37 W/m2 OVC
08:15 56.7 °F 54.7 °F 30.06 in Calm     93% 0.00 in WeatherDisplay:10.37 W/m2 OVC
08:20 56.8 °F 54.8 °F 30.06 in Calm     93% 0.00 in WeatherDisplay:10.37 W/m2 OVC
08:25 56.6 °F 54.6 °F 30.06 in Calm     93% 0.00 in WeatherDisplay:10.37 W/m2 OVC
08:30 56.4 °F 54.4 °F 30.06 in Calm     93% 0.00 in WeatherDisplay:10.37 W/m2 OVC
08:35 56.4 °F 54.4 °F 30.06 in Calm     93% 0.00 in WeatherDisplay:10.37 W/m2 OVC
08:40 56.4 °F 54.4 °F 30.07 in Calm     93% 0.00 in WeatherDisplay:10.37 W/m2 OVC
08:46 56.6 °F 54.6 °F 30.07 in Calm     93% 0.00 in WeatherDisplay:10.37 W/m2 OVC
08:51 56.7 °F 54.7 °F 30.07 in Calm     93% 0.00 in WeatherDisplay:10.37 W/m2 OVC
08:56 56.8 °F 54.8 °F 30.06 in Calm     93% 0.00 in WeatherDisplay:10.37 W/m2 OVC
09:01 56.6 °F 54.3 °F 30.07 in Calm     92% 0.00 in WeatherDisplay:10.37 W/m2 OVC
09:06 56.5 °F 54.2 °F 30.07 in Calm     92% 0.00 in WeatherDisplay:10.37 W/m2 OVC
09:11 56.4 °F 54.1 °F 30.08 in Calm     92% 0.00 in WeatherDisplay:10.37 W/m2 OVC
09:12 56.4 °F 54.1 °F 30.08 in WSW 1.2 mph 1.2 mph 92% 0.00 in WeatherDisplay:10.37 W/m2 OVC
09:17 56.4 °F 54.1 °F 30.08 in Calm     92% 0.00 in WeatherDisplay:10.37 W/m2 OVC
09:22 56.5 °F 54.2 °F 30.08 in East 1.2 mph 1.2 mph 92% 0.00 in WeatherDisplay:10.37 W/m2 OVC
09:27 56.7 °F 54.4 °F 30.08 in SE 1.2 mph   92% 0.00 in WeatherDisplay:10.37 W/m2 OVC
09:32 56.9 °F 54.6 °F 30.08 in Calm     92% 0.00 in WeatherDisplay:10.37 W/m2 OVC
09:37 57.0 °F 54.7 °F 30.07 in South 1.2 mph 1.2 mph 92% 0.00 in WeatherDisplay:10.37 W/m2 OVC
09:42 56.8 °F 54.2 °F 30.08 in South 1.2 mph   91% 0.00 in WeatherDisplay:10.37 W/m2 OVC
09:48 56.8 °F 54.2 °F 30.08 in Calm   0.1 mph 91% 0.00 in WeatherDisplay:10.37 W/m2 OVC
09:53 56.8 °F 54.2 °F 30.07 in ESE 1.2 mph 1.2 mph 91% 0.00 in WeatherDisplay:10.37 W/m2 OVC
09:58 56.9 °F 54.3 °F 30.07 in Calm     91% 0.00 in WeatherDisplay:10.37 W/m2 OVC
10:03 56.9 °F 54.3 °F 30.07 in South 1.2 mph   91% 0.00 in WeatherDisplay:10.37 W/m2 OVC
10:08 56.8 °F 53.9 °F 30.07 in Calm     90% 0.00 in WeatherDisplay:10.37 W/m2 OVC
10:13 56.8 °F 53.9 °F 30.08 in Calm     90% 0.00 in WeatherDisplay:10.37 W/m2 OVC
10:18 56.9 °F 54.3 °F 30.08 in East 1.2 mph 1.2 mph 91% 0.00 in WeatherDisplay:10.37 W/m2 OVC
10:23 56.8 °F 53.9 °F 30.08 in West 1.2 mph   90% 0.00 in WeatherDisplay:10.37 W/m2 OVC
10:28 56.8 °F 53.9 °F 30.09 in Calm     90% 0.00 in WeatherDisplay:10.37 W/m2 OVC
10:33 56.9 °F 54.0 °F 30.09 in Calm     90% 0.00 in WeatherDisplay:10.37 W/m2 OVC
10:38 57.0 °F 54.1 °F 30.09 in Calm     90% 0.00 in WeatherDisplay:10.37 W/m2 OVC
10:39 57.0 °F 54.1 °F 30.09 in Calm     90% 0.00 in WeatherDisplay:10.37 W/m2 OVC
10:44 57.2 °F 54.3 °F 30.09 in NW 2.3 mph 2.3 mph 90% 0.00 in WeatherDisplay:10.37 W/m2 OVC
10:49 57.2 °F 54.0 °F 30.09 in Calm     89% 0.00 in WeatherDisplay:10.37 W/m2 OVC
10:54 57.3 °F 54.1 °F 30.08 in Calm     89% 0.00 in WeatherDisplay:10.37 W/m2 OVC
10:59 57.4 °F 54.2 °F 30.09 in Calm     89% 0.00 in WeatherDisplay:10.37 W/m2 OVC
11:04 57.5 °F 54.0 °F 30.08 in West 1.2 mph   88% 0.00 in WeatherDisplay:10.37 W/m2 OVC
11:09 57.5 °F 54.0 °F 30.09 in Calm     88% 0.00 in WeatherDisplay:10.37 W/m2 OVC
11:14 57.6 °F 54.4 °F 30.09 in Calm     89% 0.00 in WeatherDisplay:10.37 W/m2 OVC
11:19 57.7 °F 53.9 °F 30.09 in Calm     87% 0.00 in WeatherDisplay:10.37 W/m2 OVC
11:24 57.8 °F 54.0 °F 30.09 in Calm     87% 0.00 in WeatherDisplay:10.37 W/m2 OVC
11:29 57.8 °F 54.0 °F 30.08 in SW 2.3 mph   87% 0.00 in WeatherDisplay:10.37 W/m2 OVC
11:34 57.8 °F 54.0 °F 30.09 in SW 1.2 mph   87% 0.00 in WeatherDisplay:10.37 W/m2 OVC
11:40 57.7 °F 53.9 °F 30.09 in Calm     87% 0.00 in WeatherDisplay:10.37 W/m2 OVC
11:45 57.6 °F 53.8 °F 30.08 in SW 1.2 mph 1.2 mph 87% 0.00 in WeatherDisplay:10.37 W/m2 OVC
11:50 57.6 °F 53.8 °F 30.07 in Calm   1.0 mph 87% 0.00 in WeatherDisplay:10.37 W/m2 OVC
11:55 57.7 °F 53.9 °F 30.07 in Calm   1.0 mph 87% 0.00 in WeatherDisplay:10.37 W/m2 OVC
12:00 57.7 °F 53.5 °F 30.08 in Calm   2.0 mph 86% 0.00 in WeatherDisplay:10.37 W/m2 OVC
12:01 57.6 °F 53.4 °F 30.07 in West 2.3 mph 2.3 mph 86% 0.00 in WeatherDisplay:10.37 W/m2 OVC
12:12 57.5 °F 53.7 °F 30.07 in Calm     87% 0.00 in WeatherDisplay:10.37 W/m2 OVC
12:17 57.5 °F 53.7 °F 30.07 in Calm     87% 0.00 in WeatherDisplay:10.37 W/m2 OVC
12:22 57.4 °F 53.2 °F 30.07 in NE 1.2 mph 1.2 mph 86% 0.00 in WeatherDisplay:10.37 W/m2 OVC
12:27 57.4 °F 53.6 °F 30.07 in NE 1.2 mph   87% 0.00 in WeatherDisplay:10.37 W/m2 OVC
12:32 57.5 °F 53.7 °F 30.06 in SSE 1.2 mph 1.2 mph 87% 0.00 in WeatherDisplay:10.37 W/m2 OVC
12:37 57.5 °F 53.0 °F 30.06 in Calm     85% 0.00 in WeatherDisplay:10.37 W/m2 OVC
12:42 57.5 °F 53.0 °F 30.07 in Calm     85% 0.00 in WeatherDisplay:10.37 W/m2 -DZ
12:47 57.5 °F 53.3 °F 30.06 in Calm     86% 0.00 in WeatherDisplay:10.37 W/m2 -DZ
12:52 57.6 °F 53.4 °F 30.06 in Calm     86% 0.00 in WeatherDisplay:10.37 W/m2 OVC
12:57 57.6 °F 53.1 °F 30.06 in Calm     85% 0.00 in WeatherDisplay:10.37 W/m2 OVC
13:02 57.7 °F 53.2 °F 30.06 in Calm     85% 0.00 in WeatherDisplay:10.37 W/m2 OVC
13:07 57.8 °F 53.3 °F 30.06 in Calm     85% 0.00 in WeatherDisplay:10.37 W/m2 OVC
13:12 57.9 °F 53.4 °F 30.06 in SSE 1.2 mph 1.4 mph 85% 0.00 in WeatherDisplay:10.37 W/m2 OVC
13:18 57.8 °F 53.3 °F 30.06 in West 1.2 mph   85% 0.00 in WeatherDisplay:10.37 W/m2 OVC
13:19 57.8 °F 53.3 °F 30.05 in SSW 2.3 mph 2.3 mph 85% 0.00 in WeatherDisplay:10.37 W/m2 OVC
13:24 57.8 °F 53.0 °F 30.05 in Calm     84% 0.00 in WeatherDisplay:10.37 W/m2 OVC
13:29 57.8 °F 53.6 °F 30.05 in Calm     86% 0.00 in WeatherDisplay:10.37 W/m2 OVC
13:34 57.9 °F 53.4 °F 30.05 in Calm     85% 0.00 in WeatherDisplay:10.37 W/m2 OVC
13:39 58.1 °F 53.3 °F 30.05 in North 1.0 mph   84% 0.00 in WeatherDisplay:10.37 W/m2 OVC
13:44 58.3 °F 53.5 °F 30.04 in WSW 1.2 mph   84% 0.00 in WeatherDisplay:10.37 W/m2 BKN
13:49 58.5 °F 53.4 °F 30.04 in NW 1.2 mph 1.2 mph 83% 0.00 in WeatherDisplay:10.37 W/m2 BKN
13:54 58.6 °F 53.5 °F 30.04 in Calm     83% 0.00 in WeatherDisplay:10.37 W/m2 BKN
13:59 58.6 °F 53.1 °F 30.04 in WNW 1.2 mph   82% 0.00 in WeatherDisplay:10.37 W/m2 BKN
14:01 58.6 °F 52.8 °F 30.04 in SSW 2.3 mph 2.3 mph 81% 0.00 in WeatherDisplay:10.37 W/m2 OVC
14:07 58.6 °F 53.5 °F 30.04 in SSW 1.0 mph 1.0 mph 83% 0.00 in WeatherDisplay:10.37 W/m2 OVC
14:12 58.7 °F 53.2 °F 30.03 in Calm     82% 0.00 in WeatherDisplay:10.37 W/m2 OVC
14:17 58.8 °F 53.6 °F 30.03 in Calm     83% 0.00 in WeatherDisplay:10.37 W/m2 OVC
14:22 59.0 °F 53.8 °F 30.03 in SW 1.2 mph   83% 0.00 in WeatherDisplay:10.37 W/m2 OVC
14:27 59.0 °F 53.5 °F 30.04 in SE 1.2 mph   82% 0.00 in WeatherDisplay:10.37 W/m2 OVC
14:32 58.9 °F 53.4 °F 30.04 in Calm     82% 0.00 in WeatherDisplay:10.37 W/m2 OVC
14:37 58.8 °F 53.6 °F 30.04 in Calm     83% 0.00 in WeatherDisplay:10.37 W/m2 OVC
14:42 58.8 °F 53.6 °F 30.04 in Calm     83% 0.00 in WeatherDisplay:10.37 W/m2 OVC
14:47 58.8 °F 53.6 °F 30.04 in Calm     83% 0.00 in WeatherDisplay:10.37 W/m2 OVC
14:52 58.6 °F 53.1 °F 30.04 in Calm     82% 0.00 in WeatherDisplay:10.37 W/m2 OVC
14:57 58.5 °F 53.4 °F 30.03 in Calm     83% 0.00 in WeatherDisplay:10.37 W/m2 OVC
15:02 58.5 °F 53.4 °F 30.04 in ESE 1.2 mph 1.2 mph 83% 0.00 in WeatherDisplay:10.37 W/m2 OVC
15:07 58.5 °F 53.4 °F 30.03 in East 1.2 mph 1.2 mph 83% 0.00 in WeatherDisplay:10.37 W/m2 OVC
15:12 58.5 °F 53.4 °F 30.04 in ESE 1.0 mph   83% 0.00 in WeatherDisplay:10.37 W/m2 OVC
15:17 58.5 °F 53.4 °F 30.04 in SSW 2.3 mph 2.3 mph 83% 0.00 in WeatherDisplay:10.37 W/m2 OVC
15:22 58.4 °F 53.3 °F 30.05 in Calm     83% 0.00 in WeatherDisplay:10.37 W/m2 OVC
15:27 58.6 °F 53.8 °F 30.05 in Calm     84% 0.00 in WeatherDisplay:10.37 W/m2 OVC
15:32 58.5 °F 53.7 °F 30.05 in Calm     84% 0.00 in WeatherDisplay:10.37 W/m2 OVC
15:37 58.5 °F 53.4 °F 30.05 in Calm     83% 0.00 in WeatherDisplay:10.37 W/m2 OVC
15:42 58.4 °F 53.6 °F 30.06 in ESE 1.0 mph 1.0 mph 84% 0.00 in WeatherDisplay:10.37 W/m2 OVC
15:47 58.4 °F 53.6 °F 30.08 in Calm     84% 0.00 in WeatherDisplay:10.37 W/m2 OVC
15:52 58.3 °F 53.2 °F 30.08 in SW 1.2 mph   83% 0.00 in WeatherDisplay:10.37 W/m2 OVC
15:58 58.2 °F 53.4 °F 30.08 in West 1.2 mph   84% 0.00 in WeatherDisplay:10.37 W/m2 OVC
16:03 58.1 °F 53.3 °F 30.08 in SSW 1.2 mph 1.2 mph 84% 0.00 in WeatherDisplay:10.37 W/m2 -DZ
16:08 57.9 °F 53.4 °F 30.08 in Calm     85% 0.00 in WeatherDisplay:10.37 W/m2 -DZ
16:13 57.7 °F 52.9 °F 30.08 in Calm     84% 0.00 in WeatherDisplay:10.37 W/m2 -DZ
16:18 57.6 °F 53.1 °F 30.09 in WSW 1.2 mph 1.2 mph 85% 0.00 in WeatherDisplay:10.37 W/m2 -DZ
16:23 57.4 °F 52.9 °F 30.09 in Calm     85% 0.00 in WeatherDisplay:10.37 W/m2 -DZ
16:28 57.3 °F 53.1 °F 30.10 in Calm     86% 0.00 in WeatherDisplay:10.37 W/m2 -DZ
16:33 57.1 °F 52.6 °F 30.10 in Calm     85% 0.00 in WeatherDisplay:10.37 W/m2 -DZ
16:38 57.1 °F 53.0 °F 30.10 in Calm     86% 0.00 in WeatherDisplay:10.37 W/m2 -DZ
16:43 57.0 °F 52.9 °F 30.10 in Calm     86% 0.00 in WeatherDisplay:10.37 W/m2 -DZ
16:48 56.9 °F 52.8 °F 30.10 in WNW 1.2 mph   86% 0.00 in WeatherDisplay:10.37 W/m2 -DZ
16:53 56.8 °F 52.7 °F 30.10 in Calm     86% 0.00 in WeatherDisplay:10.37 W/m2 -DZ
16:58 56.6 °F 52.5 °F 30.10 in Calm     86% 0.00 in WeatherDisplay:10.37 W/m2 -DZ
17:03 56.5 °F 52.4 °F 30.10 in Calm     86% 0.00 in WeatherDisplay:10.37 W/m2 -DZ
17:08 56.4 °F 52.3 °F 30.09 in Calm     86% 0.00 in WeatherDisplay:10.37 W/m2 -DZ
17:13 56.4 °F 52.3 °F 30.09 in Calm     86% 0.00 in WeatherDisplay:10.37 W/m2 -DZ
17:18 56.3 °F 52.2 °F 30.09 in Calm     86% 0.00 in WeatherDisplay:10.37 W/m2 -DZ
17:23 56.2 °F 52.4 °F 30.09 in WNW 1.0 mph 1.0 mph 87% 0.00 in WeatherDisplay:10.37 W/m2 -DZ
17:29 56.1 °F 52.3 °F 30.08 in Calm     87% 0.00 in WeatherDisplay:10.37 W/m2 -DZ
17:33 55.9 °F 52.1 °F 30.07 in Calm     87% 0.00 in WeatherDisplay:10.37 W/m2 -DZ
17:39 55.8 °F 52.0 °F 30.08 in Calm     87% 0.00 in WeatherDisplay:10.37 W/m2 -DZ
17:44 55.7 °F 51.9 °F 30.08 in Calm     87% 0.00 in WeatherDisplay:10.37 W/m2 -DZ
17:49 55.6 °F 51.8 °F 30.08 in Calm     87% 0.00 in WeatherDisplay:10.37 W/m2 -DZ
17:54 55.5 °F 52.0 °F 30.08 in Calm     88% 0.00 in WeatherDisplay:10.37 W/m2 -DZ
17:59 55.3 °F 51.8 °F 30.09 in Calm     88% 0.00 in WeatherDisplay:10.37 W/m2 -DZ
18:04 55.3 °F 51.8 °F 30.09 in Calm     88% 0.00 in WeatherDisplay:10.37 W/m2 -DZ
18:09 55.2 °F 52.0 °F 30.10 in Calm     89% 0.00 in WeatherDisplay:10.37 W/m2 -DZ
18:14 55.1 °F 51.9 °F 30.10 in Calm     89% 0.00 in WeatherDisplay:10.37 W/m2 -DZ
18:19 55.0 °F 51.8 °F 30.10 in Calm     89% 0.00 in WeatherDisplay:10.37 W/m2 -DZ
18:24 54.9 °F 51.7 °F 30.11 in Calm     89% 0.00 in WeatherDisplay:10.37 W/m2 -DZ
18:29 54.9 °F 51.7 °F 30.11 in Calm     89% 0.00 in WeatherDisplay:10.37 W/m2 -DZ
18:34 54.8 °F 51.9 °F 30.11 in Calm     90% 0.00 in WeatherDisplay:10.37 W/m2 -DZ
18:39 54.7 °F 51.8 °F 30.11 in Calm     90% 0.01 in WeatherDisplay:10.37 W/m2 -DZ
18:44 54.7 °F 52.1 °F 30.08 in Calm     91% 0.01 in WeatherDisplay:10.37 W/m2 -DZ
18:49 54.5 °F 51.9 °F 30.06 in Calm     91% 0.01 in WeatherDisplay:10.37 W/m2 -DZ
18:54 54.3 °F 51.7 °F 30.07 in Calm     91% 0.01 in WeatherDisplay:10.37 W/m2 -DZ
18:59 54.2 °F 51.6 °F 30.08 in Calm     91% 0.01 in WeatherDisplay:10.37 W/m2 -DZ
19:04 54.1 °F 51.5 °F 30.08 in Calm     91% 0.01 in WeatherDisplay:10.37 W/m2 -RA
19:09 54.0 °F 51.7 °F 30.10 in West 1.2 mph 1.2 mph 92% 0.01 in WeatherDisplay:10.37 W/m2 -RA
19:14 53.6 °F 51.0 °F 30.10 in Calm     91% 0.01 in WeatherDisplay:10.37 W/m2 -RA
19:19 53.5 °F 51.2 °F 30.10 in WNW 1.2 mph 1.2 mph 92% 0.01 in WeatherDisplay:10.37 W/m2 -RA
19:24 53.0 °F 50.4 °F 30.10 in WNW 2.3 mph 2.3 mph 91% 0.01 in WeatherDisplay:10.37 W/m2 -RA
19:29 52.8 °F 50.5 °F 30.09 in West 1.2 mph 1.2 mph 92% 0.01 in WeatherDisplay:10.37 W/m2 -RA
19:34 52.8 °F 50.5 °F 30.09 in Calm     92% 0.01 in WeatherDisplay:10.37 W/m2 -DZ
19:40 52.6 °F 50.3 °F 30.09 in Calm   1.0 mph 92% 0.00 in WeatherDisplay:10.37 W/m2 -DZ
19:45 52.4 °F 50.2 °F 30.09 in Calm   1.0 mph 92% 0.00 in WeatherDisplay:10.37 W/m2 -DZ
19:50 52.2 °F 49.9 °F 30.10 in Calm   1.0 mph 92% 0.00 in WeatherDisplay:10.37 W/m2 -DZ
19:55 52.1 °F 49.8 °F 30.10 in Calm   0.1 mph 92% 0.00 in WeatherDisplay:10.37 W/m2 -DZ
20:00 51.9 °F 49.6 °F 30.10 in Calm   3.0 mph 92% 0.00 in WeatherDisplay:10.37 W/m2 -DZ
20:05 51.8 °F 49.5 °F 30.10 in Calm   1.0 mph 92% 0.00 in WeatherDisplay:10.37 W/m2 -DZ
20:10 51.8 °F 49.5 °F 30.10 in Calm   1.0 mph 92% 0.00 in WeatherDisplay:10.37 W/m2 -DZ
20:15 51.7 °F 49.5 °F 30.10 in Calm   1.0 mph 92% 0.00 in WeatherDisplay:10.37 W/m2 OVC
20:20 51.6 °F 49.4 °F 30.11 in Calm   1.0 mph 92% 0.00 in WeatherDisplay:10.37 W/m2 OVC
20:25 51.6 °F 49.4 °F 30.11 in Calm   1.0 mph 92% 0.00 in WeatherDisplay:10.37 W/m2 OVC
20:30 51.6 °F 49.4 °F 30.11 in Calm   1.0 mph 92% 0.00 in WeatherDisplay:10.37 W/m2 OVC
20:35 51.5 °F 49.3 °F 30.11 in Calm   1.0 mph 92% 0.00 in WeatherDisplay:10.37 W/m2 OVC
20:37 51.4 °F 49.2 °F 30.11 in WNW 1.2 mph 1.2 mph 92% 0.00 in WeatherDisplay:10.37 W/m2 OVC
20:43 51.3 °F 49.1 °F 30.10 in Calm     92% 0.00 in WeatherDisplay:10.37 W/m2 OVC
20:48 51.4 °F 49.2 °F 30.10 in Calm     92% 0.00 in WeatherDisplay:10.37 W/m2 OVC
20:53 51.4 °F 49.2 °F 30.10 in Calm     92% 0.00 in WeatherDisplay:10.37 W/m2 OVC
20:58 51.2 °F 49.0 °F 30.10 in West 2.3 mph 2.3 mph 92% 0.00 in WeatherDisplay:10.37 W/m2 OVC
21:01 51.3 °F 49.1 °F 30.10 in Calm     92% 0.00 in WeatherDisplay:10.37 W/m2 OVC
21:06 51.2 °F 49.0 °F 30.10 in West 1.2 mph 1.2 mph 92% 0.00 in WeatherDisplay:10.37 W/m2 OVC
21:11 51.2 °F 49.2 °F 30.11 in Calm     93% 0.00 in WeatherDisplay:10.37 W/m2 OVC
21:16 51.1 °F 49.1 °F 30.11 in West 1.0 mph   93% 0.00 in WeatherDisplay:10.37 W/m2 OVC
21:21 51.1 °F 49.1 °F 30.11 in Calm     93% 0.00 in WeatherDisplay:10.37 W/m2 OVC
21:26 51.2 °F 49.2 °F 30.11 in Calm     93% 0.00 in WeatherDisplay:10.37 W/m2 OVC
21:31 51.1 °F 49.1 °F 30.11 in Calm     93% 0.00 in WeatherDisplay:10.37 W/m2 OVC
21:37 51.1 °F 49.1 °F 30.12 in Calm     93% 0.00 in WeatherDisplay:10.37 W/m2 OVC
21:42 51.1 °F 49.1 °F 30.12 in WNW 1.2 mph 1.2 mph 93% 0.00 in WeatherDisplay:10.37 W/m2 OVC
21:47 51.0 °F 49.0 °F 30.12 in WNW 1.2 mph 1.2 mph 93% 0.00 in WeatherDisplay:10.37 W/m2 OVC
21:52 51.0 °F 49.0 °F 30.12 in Calm     93% 0.00 in WeatherDisplay:10.37 W/m2 OVC
21:57 50.9 °F 48.9 °F 30.12 in West 1.2 mph   93% 0.00 in WeatherDisplay:10.37 W/m2 OVC
22:02 51.0 °F 49.0 °F 30.12 in West 1.2 mph   93% 0.00 in WeatherDisplay:10.37 W/m2 OVC
22:07 50.9 °F 48.9 °F 30.12 in West 1.2 mph 1.2 mph 93% 0.00 in WeatherDisplay:10.37 W/m2 OVC
22:12 50.9 °F 48.9 °F 30.11 in West 2.3 mph 2.3 mph 93% 0.00 in WeatherDisplay:10.37 W/m2 OVC
22:17 50.9 °F 48.9 °F 30.12 in West 1.2 mph   93% 0.00 in WeatherDisplay:10.37 W/m2 OVC
22:22 50.9 °F 48.9 °F 30.12 in Calm     93% 0.00 in WeatherDisplay:10.37 W/m2 OVC
22:23 50.9 °F 48.9 °F 30.12 in WNW 1.2 mph 1.2 mph 93% 0.00 in WeatherDisplay:10.37 W/m2 OVC
22:28 50.7 °F 48.7 °F 30.12 in WNW 1.2 mph   93% 0.00 in WeatherDisplay:10.37 W/m2 OVC
22:33 50.6 °F 48.7 °F 30.12 in Calm     93% 0.00 in WeatherDisplay:10.37 W/m2 OVC
22:38 50.6 °F 48.7 °F 30.12 in West 1.2 mph 1.2 mph 93% 0.00 in WeatherDisplay:10.37 W/m2 OVC
22:41 50.6 °F 48.7 °F 30.12 in WNW 1.0 mph 1.0 mph 93% 0.00 in WeatherDisplay:10.37 W/m2 OVC
22:46 50.6 °F 48.7 °F 30.12 in Calm     93% 0.00 in WeatherDisplay:10.37 W/m2 OVC
22:52 50.5 °F 48.6 °F 30.12 in Calm     93% 0.00 in WeatherDisplay:10.37 W/m2 OVC
22:57 50.5 °F 48.6 °F 30.12 in Calm     93% 0.00 in WeatherDisplay:10.37 W/m2 OVC
23:02 50.5 °F 48.6 °F 30.12 in Calm     93% 0.00 in WeatherDisplay:10.37 W/m2 OVC
23:07 50.5 °F 48.6 °F 30.12 in West 1.0 mph   93% 0.00 in WeatherDisplay:10.37 W/m2 OVC
23:12 50.4 °F 48.5 °F 30.12 in West 1.0 mph 1.0 mph 93% 0.00 in WeatherDisplay:10.37 W/m2 OVC
23:17 50.4 °F 48.5 °F 30.12 in WNW 1.2 mph 1.2 mph 93% 0.00 in WeatherDisplay:10.37 W/m2 OVC
23:22 50.3 °F 48.4 °F 30.12 in Calm     93% 0.00 in WeatherDisplay:10.37 W/m2 OVC
23:27 50.3 °F 48.4 °F 30.12 in WNW 1.2 mph 1.2 mph 93% 0.00 in WeatherDisplay:10.37 W/m2 OVC
23:32 50.2 °F 48.3 °F 30.11 in West 1.2 mph 1.2 mph 93% 0.00 in WeatherDisplay:10.37 W/m2 OVC
23:37 50.2 °F 48.3 °F 30.12 in Calm     93% 0.00 in WeatherDisplay:10.37 W/m2 OVC
23:42 50.2 °F 48.3 °F 30.12 in Calm     93% 0.00 in WeatherDisplay:10.37 W/m2 OVC
23:47 50.3 °F 48.4 °F 30.13 in Calm     93% 0.00 in WeatherDisplay:10.37 W/m2 OVC
23:52 50.2 °F 48.3 °F 30.12 in Calm     93% 0.00 in WeatherDisplay:10.37 W/m2 OVC
23:57 50.2 °F 48.3 °F 30.13 in WNW 1.2 mph 1.2 mph 93% 0.00 in WeatherDisplay:10.37 W/m2 OVC
Piedmont Bend
Compliments of Weather Underground - 4 mb